Aviation WX

[Source: ADDS]
METAR
KFKL 232035Z 25008KT 10SM FEW025 SCT030 BKN035 17/12 A2980 RMK AO1 =
TAF
KFKL 232016Z 2320/2418 25012G18KT P6SM BKN040 FM240000 VRB03KT P6SM -RA BKN015 FM240900 18005KT P6SM BKN060 FM241600 19012G25KT P6SM SCT060 AMD LTD TO CLD VIS AND WIND =